Time;durP1;ratioP1;P1;durP2;ratioP2;P2;SDS_P1;SDS_P2;PMS_P1;PMS_P2;Temp;Humidity;BMP_temperature;BMP_pressure;BME280_temperature;BME280_humidity;BME280_pressure;Samples;Min_cycle;Max_cycle;Signal;HPM_P1;HPM_P2
2021/10/11 00:00:57;;;;;;;10.15;1.80;;;;;;;12.12;99.03;102835.13;5011592;28;20033;-71
2021/10/11 00:03:22;;;;;;;11.35;2.10;;;;;;;12.10;99.37;102830.63;5010752;28;20471;-72
2021/10/11 00:05:48;;;;;;;10.50;2.20;;;;;;;12.06;99.69;102840.16;5010465;28;20041;-72
2021/10/11 00:08:13;;;;;;;10.00;2.22;;;;;;;12.02;98.94;102840.88;5010152;28;20033;-72
2021/10/11 00:10:38;;;;;;;13.13;1.90;;;;;;;12.00;98.64;102839.88;5009295;28;20386;-72
2021/10/11 00:13:04;;;;;;;13.43;1.90;;;;;;;11.99;98.19;102843.34;5008418;28;20470;-71
2021/10/11 00:15:29;;;;;;;17.75;2.33;;;;;;;11.96;98.68;102841.50;5010924;28;20084;-71
2021/10/11 00:17:55;;;;;;;22.65;2.65;;;;;;;11.91;98.48;102850.91;5010772;28;20025;-71
2021/10/11 00:20:21;;;;;;;11.80;3.17;;;;;;;11.89;98.64;102847.31;5010628;28;20037;-72
2021/10/11 00:22:46;;;;;;;15.05;1.77;;;;;;;11.85;98.71;102844.47;5014751;28;20045;-72
2021/10/11 00:25:12;;;;;;;9.82;2.00;;;;;;;11.83;98.45;102841.78;5015838;28;20057;-72
2021/10/11 00:27:38;;;;;;;12.23;1.70;;;;;;;11.82;97.24;102838.22;5012328;28;20387;-72
2021/10/11 00:30:06;;;;;;;12.52;2.05;;;;;;;11.84;97.73;102842.66;5015383;28;20512;-72
2021/10/11 00:32:31;;;;;;;6.18;1.52;;;;;;;11.84;97.26;102837.38;5008865;28;20034;-72
2021/10/11 00:34:56;;;;;;;23.20;3.10;;;;;;;11.80;96.97;102832.00;5011268;28;20513;-71
2021/10/11 00:37:22;;;;;;;18.00;2.25;;;;;;;11.78;97.38;102833.63;5012831;28;20022;-71
2021/10/11 00:39:47;;;;;;;12.57;1.67;;;;;;;11.75;98.84;102837.91;5011970;28;20033;-72
2021/10/11 00:42:13;;;;;;;8.27;1.63;;;;;;;11.68;98.33;102835.81;5014246;28;20040;-72
2021/10/11 00:44:38;;;;;;;9.43;1.70;;;;;;;11.63;97.00;102835.63;5015628;28;20437;-71
2021/10/11 00:47:03;;;;;;;11.77;1.70;;;;;;;11.54;97.64;102835.19;5013812;28;20518;-71
2021/10/11 00:49:29;;;;;;;11.85;2.30;;;;;;;11.48;98.02;102834.09;5013695;28;20076;-71
2021/10/11 00:51:55;;;;;;;16.27;2.05;;;;;;;11.41;97.69;102842.56;5009655;28;20088;-71
2021/10/11 00:54:22;;;;;;;12.05;1.40;;;;;;;11.36;98.11;102844.09;5011740;28;20035;-70
2021/10/11 00:56:48;;;;;;;15.98;2.30;;;;;;;11.32;98.02;102842.13;5012923;28;20386;-71
2021/10/11 00:59:13;;;;;;;13.05;1.85;;;;;;;11.24;98.22;102848.78;5014591;28;20029;-73
2021/10/11 01:01:39;;;;;;;9.52;2.03;;;;;;;11.21;98.67;102843.41;5011202;28;20042;-71
2021/10/11 01:04:06;;;;;;;15.15;1.77;;;;;;;11.19;99.93;102845.97;5015761;28;20025;-71
2021/10/11 01:06:40;;;;;;;19.25;2.42;;;;;;;11.14;99.27;102840.47;5013982;28;20029;-72
2021/10/11 01:09:07;;;;;;;26.38;2.40;;;;;;;11.09;98.29;102841.97;5006053;28;20018;-71
2021/10/11 01:11:32;;;;;;;18.40;2.42;;;;;;;11.04;97.44;102846.16;5017637;28;20428;-71
2021/10/11 01:13:58;;;;;;;14.25;1.45;;;;;;;11.03;97.97;102839.06;5011894;28;20030;-71
2021/10/11 01:16:23;;;;;;;13.75;1.80;;;;;;;11.01;98.28;102840.72;5009611;28;20065;-72
2021/10/11 01:18:49;;;;;;;12.07;1.70;;;;;;;10.97;97.85;102844.03;5014362;28;20032;-72
2021/10/11 01:21:14;;;;;;;9.10;1.80;;;;;;;10.93;98.54;102843.00;5013684;28;20385;-72
2021/10/11 01:23:39;;;;;;;9.15;1.80;;;;;;;10.91;98.34;102843.75;5013084;28;20084;-72
2021/10/11 01:26:05;;;;;;;13.23;1.80;;;;;;;10.85;97.61;102838.19;5013685;28;20116;-72
2021/10/11 01:28:30;;;;;;;13.25;2.00;;;;;;;10.78;97.26;102840.56;5013511;28;20046;-72
2021/10/11 01:30:56;;;;;;;8.55;1.52;;;;;;;10.78;97.42;102842.25;5013773;28;20105;-71
2021/10/11 01:33:21;;;;;;;8.30;1.90;;;;;;;10.74;97.38;102846.50;5010981;28;20041;-71
2021/10/11 01:35:47;;;;;;;8.80;2.08;;;;;;;10.73;97.36;102842.06;5010928;28;20018;-71
2021/10/11 01:38:12;;;;;;;14.02;2.40;;;;;;;10.71;97.62;102848.97;5014391;28;20026;-70
2021/10/11 01:40:38;;;;;;;13.80;2.03;;;;;;;10.67;97.30;102847.00;5011696;28;20044;-71
2021/10/11 01:43:05;;;;;;;11.07;1.90;;;;;;;10.65;96.93;102846.06;5014218;28;20474;-72
2021/10/11 01:45:32;;;;;;;12.57;1.70;;;;;;;10.66;97.15;102836.41;5012678;28;20466;-71
2021/10/11 01:47:57;;;;;;;10.57;1.60;;;;;;;10.64;97.24;102828.44;5012753;28;20033;-71
2021/10/11 01:50:22;;;;;;;9.13;2.00;;;;;;;10.60;96.01;102829.13;5012842;28;20046;-71
2021/10/11 01:52:48;;;;;;;8.10;1.40;;;;;;;10.55;96.10;102822.72;5010898;28;20038;-71
2021/10/11 01:55:13;;;;;;;9.88;2.40;;;;;;;10.57;97.55;102831.63;5008119;28;20022;-71
2021/10/11 01:57:38;;;;;;;6.57;1.15;;;;;;;10.54;97.36;102836.72;5009871;28;20057;-72
2021/10/11 02:00:07;;;;;;;10.35;2.10;;;;;;;10.50;96.45;102837.38;5012521;28;20058;-72
2021/10/11 02:02:32;;;;;;;10.82;1.75;;;;;;;10.46;96.87;102844.25;5010638;28;20033;-72
2021/10/11 02:04:58;;;;;;;9.80;1.40;;;;;;;10.42;96.61;102837.91;5012409;28;20107;-72
2021/10/11 02:07:23;;;;;;;9.23;1.85;;;;;;;10.43;97.24;102844.06;5010549;28;20048;-72
2021/10/11 02:09:48;;;;;;;13.32;2.03;;;;;;;10.41;97.42;102835.22;5010684;28;20034;-72
2021/10/11 02:12:14;;;;;;;6.05;2.20;;;;;;;10.39;96.71;102827.25;5011849;28;20103;-72
2021/10/11 02:14:40;;;;;;;8.70;2.55;;;;;;;10.37;96.75;102830.63;5013533;28;20193;-71
2021/10/11 02:17:05;;;;;;;10.02;1.63;;;;;;;10.32;96.72;102830.34;5011627;28;20014;-72
2021/10/11 02:19:30;;;;;;;11.73;1.98;;;;;;;10.30;96.25;102837.28;5014284;28;20113;-72
2021/10/11 02:21:56;;;;;;;6.22;1.70;;;;;;;10.28;97.90;102839.84;5011286;28;20053;-71
2021/10/11 02:24:21;;;;;;;9.35;1.92;;;;;;;10.22;97.37;102841.25;5013291;28;20512;-71
2021/10/11 02:26:46;;;;;;;21.23;2.00;;;;;;;10.16;97.42;102846.19;5011284;28;20037;-71
2021/10/11 02:29:12;;;;;;;7.15;1.65;;;;;;;10.11;96.93;102838.97;5013615;28;20065;-72
2021/10/11 02:31:37;;;;;;;4.75;1.25;;;;;;;10.13;97.67;102833.78;5011775;28;20375;-70
2021/10/11 02:34:02;;;;;;;15.52;2.05;;;;;;;10.10;97.23;102824.00;5010214;28;20087;-72
2021/10/11 02:36:27;;;;;;;13.52;1.55;;;;;;;10.13;98.87;102831.16;5013159;28;20405;-72
2021/10/11 02:38:53;;;;;;;8.65;1.55;;;;;;;10.10;98.73;102824.00;5013179;28;20026;-72
2021/10/11 02:41:18;;;;;;;6.75;1.50;;;;;;;10.06;98.93;102815.91;5014037;28;20037;-72
2021/10/11 02:43:45;;;;;;;15.27;1.83;;;;;;;9.96;97.57;102819.81;5009899;28;20041;-72
2021/10/11 02:46:10;;;;;;;11.77;1.63;;;;;;;9.88;97.70;102808.88;5007626;28;20030;-72
2021/10/11 02:48:35;;;;;;;7.97;1.58;;;;;;;9.84;98.40;102803.41;5012045;28;20501;-71
2021/10/11 02:51:01;;;;;;;6.78;1.60;;;;;;;9.79;98.48;102806.69;5012505;28;20457;-72
2021/10/11 02:53:26;;;;;;;7.53;1.60;;;;;;;9.74;99.27;102810.81;5012869;28;20437;-71
2021/10/11 02:55:51;;;;;;;9.95;1.48;;;;;;;9.69;99.18;102804.41;5012329;28;20452;-72
2021/10/11 02:58:17;;;;;;;10.93;1.95;;;;;;;9.61;99.74;102790.84;5013110;28;20467;-72
2021/10/11 03:00:43;;;;;;;10.88;1.50;;;;;;;9.58;100.00;102795.06;5009289;28;20053;-72
2021/10/11 03:03:08;;;;;;;10.20;1.88;;;;;;;9.55;99.79;102800.13;5011096;28;20115;-73
2021/10/11 03:05:34;;;;;;;14.65;2.38;;;;;;;9.49;100.00;102794.59;5012192;28;21587;-72
2021/10/11 03:07:59;;;;;;;9.27;2.35;;;;;;;9.43;100.00;102801.31;5001763;28;20121;-72
2021/10/11 03:10:24;;;;;;;10.23;1.30;;;;;;;9.36;100.00;102799.19;5011361;28;20432;-71
2021/10/11 03:12:50;;;;;;;13.18;2.03;;;;;;;9.31;100.00;102805.03;5012763;28;20100;-72
2021/10/11 03:15:15;;;;;;;5.18;1.45;;;;;;;9.36;100.00;102807.06;5010755;28;20022;-72
2021/10/11 03:17:41;;;;;;;10.77;1.38;;;;;;;9.46;100.00;102811.09;5011520;28;20033;-72
2021/10/11 03:20:07;;;;;;;11.30;1.60;;;;;;;9.47;100.00;102805.03;5013088;28;20053;-72
2021/10/11 03:22:33;;;;;;;10.57;1.50;;;;;;;9.53;100.00;102802.69;5011007;28;20072;-71
2021/10/11 03:24:58;;;;;;;14.30;2.00;;;;;;;9.61;100.00;102805.72;5010355;28;20462;-71
2021/10/11 03:27:24;;;;;;;11.00;1.17;;;;;;;9.65;100.00;102799.81;5010296;28;20399;-71
2021/10/11 03:29:49;;;;;;;12.90;1.65;;;;;;;9.78;100.00;102804.88;5011631;28;20029;-72
2021/10/11 03:32:14;;;;;;;13.02;1.80;;;;;;;9.88;100.00;102800.09;5010622;28;20041;-72
2021/10/11 03:34:40;;;;;;;15.80;1.60;;;;;;;9.86;100.00;102800.03;5012039;28;20046;-73
2021/10/11 03:37:05;;;;;;;10.90;1.77;;;;;;;9.90;100.00;102798.44;5012169;28;20157;-72
2021/10/11 03:39:31;;;;;;;9.55;1.30;;;;;;;9.95;100.00;102803.09;5010262;28;20087;-72
2021/10/11 03:41:56;;;;;;;8.40;1.73;;;;;;;9.96;100.00;102809.28;5011280;28;20080;-72
2021/10/11 03:44:22;;;;;;;10.68;1.70;;;;;;;10.03;100.00;102810.50;5010310;28;20037;-72
2021/10/11 03:46:47;;;;;;;8.13;1.20;;;;;;;10.04;100.00;102807.94;5009265;28;20490;-72
2021/10/11 03:49:13;;;;;;;11.77;1.60;;;;;;;10.05;100.00;102804.50;5011967;28;20060;-71
2021/10/11 03:51:38;;;;;;;9.07;1.50;;;;;;;10.11;100.00;102794.25;5011147;28;20036;-71
2021/10/11 03:54:03;;;;;;;8.88;1.60;;;;;;;10.16;100.00;102788.31;5013973;28;20428;-72
2021/10/11 03:56:29;;;;;;;9.63;1.48;;;;;;;10.18;100.00;102789.31;5010348;28;20013;-71
2021/10/11 03:58:54;;;;;;;11.35;1.75;;;;;;;10.23;100.00;102782.56;5010213;28;20026;-73
2021/10/11 04:01:20;;;;;;;8.95;1.80;;;;;;;10.25;100.00;102781.78;5010658;28;20033;-72
2021/10/11 04:03:45;;;;;;;4.82;1.42;;;;;;;10.28;100.00;102802.06;5022714;28;20034;-71
2021/10/11 04:06:11;;;;;;;10.02;1.60;;;;;;;10.30;100.00;102803.97;5010511;28;20057;-72
2021/10/11 04:08:41;;;;;;;10.07;1.40;;;;;;;10.29;100.00;102806.53;5009190;28;20032;-71
2021/10/11 04:11:12;;;;;;;8.48;1.50;;;;;;;10.28;100.00;102804.72;5008727;28;20033;-71
2021/10/11 04:13:38;;;;;;;10.07;1.90;;;;;;;10.33;100.00;102802.31;5011866;28;20490;-73
2021/10/11 04:16:05;;;;;;;9.75;1.90;;;;;;;10.34;100.00;102796.25;5009813;28;20374;-71
2021/10/11 04:18:31;;;;;;;8.90;1.63;;;;;;;10.36;100.00;102792.88;5010845;28;20037;-72
2021/10/11 04:20:56;;;;;;;10.43;1.63;;;;;;;10.38;100.00;102799.13;5010902;28;20386;-71
2021/10/11 04:23:21;;;;;;;10.40;2.78;;;;;;;10.39;100.00;102798.31;5009161;28;20046;-72
2021/10/11 04:25:47;;;;;;;17.45;2.97;;;;;;;10.43;100.00;102802.88;5010135;28;20029;-71
2021/10/11 04:28:15;;;;;;;19.25;2.40;;;;;;;10.42;100.00;102800.19;5010659;28;20030;-71
2021/10/11 04:30:41;;;;;;;6.28;1.65;;;;;;;10.42;100.00;102793.19;5009818;28;20053;-71
2021/10/11 04:33:06;;;;;;;11.88;2.35;;;;;;;10.42;100.00;102798.44;5009758;28;20026;-71
2021/10/11 04:35:32;;;;;;;15.02;2.30;;;;;;;10.42;100.00;102793.19;5011422;28;20034;-71
2021/10/11 04:37:57;;;;;;;13.77;3.40;;;;;;;10.42;100.00;102789.66;5008368;28;20466;-72
2021/10/11 04:40:22;;;;;;;10.15;3.15;;;;;;;10.43;100.00;102792.34;5009949;28;20026;-71
2021/10/11 04:42:48;;;;;;;10.48;2.53;;;;;;;10.44;100.00;102777.44;5011862;28;20029;-71
2021/10/11 04:45:13;;;;;;;7.68;1.75;;;;;;;10.44;100.00;102781.00;5011440;28;20589;-72
2021/10/11 04:47:39;;;;;;;7.75;1.75;;;;;;;10.44;100.00;102777.44;5010500;28;20042;-73
2021/10/11 04:50:05;;;;;;;10.93;2.47;;;;;;;10.46;100.00;102781.97;5009967;28;20105;-71
2021/10/11 04:52:31;;;;;;;11.88;1.83;;;;;;;10.46;100.00;102786.34;5011066;28;20046;-71
2021/10/11 04:54:56;;;;;;;11.18;2.63;;;;;;;10.43;100.00;102781.84;5011842;28;20092;-71
2021/10/11 04:57:21;;;;;;;8.68;1.85;;;;;;;10.46;100.00;102784.59;5009276;28;20044;-71
2021/10/11 04:59:47;;;;;;;17.83;3.42;;;;;;;10.44;100.00;102783.66;5011358;28;20022;-71
2021/10/11 05:02:12;;;;;;;9.75;2.35;;;;;;;10.50;100.00;102795.28;5008410;28;20038;-71
2021/10/11 05:04:37;;;;;;;16.00;2.70;;;;;;;10.49;100.00;102791.75;5011422;28;20025;-71
2021/10/11 05:07:03;;;;;;;12.85;2.55;;;;;;;10.48;100.00;102792.56;5010297;28;20076;-71
2021/10/11 05:09:28;;;;;;;7.32;2.33;;;;;;;10.50;100.00;102806.72;5013741;28;20465;-72
2021/10/11 05:11:54;;;;;;;8.85;1.85;;;;;;;10.49;100.00;102790.84;5013310;28;20030;-71
2021/10/11 05:14:19;;;;;;;14.65;3.22;;;;;;;10.48;100.00;102791.69;5014586;28;20061;-72
2021/10/11 05:16:44;;;;;;;7.43;1.73;;;;;;;10.46;100.00;102797.75;5012244;28;20482;-72
2021/10/11 05:19:10;;;;;;;8.07;1.92;;;;;;;10.43;100.00;102791.44;5014861;28;20109;-72
2021/10/11 05:21:36;;;;;;;9.98;1.98;;;;;;;10.41;100.00;102793.09;5014370;28;20045;-72
2021/10/11 05:24:02;;;;;;;12.20;2.45;;;;;;;10.39;100.00;102789.47;5012052;28;20061;-72
2021/10/11 05:26:29;;;;;;;12.07;2.25;;;;;;;10.34;100.00;102781.34;5020685;28;20063;-72
2021/10/11 05:28:54;;;;;;;8.35;2.05;;;;;;;10.27;100.00;102779.25;5017500;28;20034;-72
2021/10/11 05:31:20;;;;;;;12.98;1.75;;;;;;;10.21;100.00;102792.09;5022692;28;20026;-72
2021/10/11 05:33:45;;;;;;;4.68;1.65;;;;;;;10.11;100.00;102794.25;5013098;28;20029;-72
2021/10/11 05:36:11;;;;;;;12.23;1.90;;;;;;;10.04;100.00;102788.63;5012675;28;20116;-74
2021/10/11 05:38:36;;;;;;;7.22;2.60;;;;;;;9.94;100.00;102789.88;5013483;28;20116;-70
2021/10/11 05:41:01;;;;;;;10.48;3.00;;;;;;;9.90;100.00;102793.19;5014446;28;20038;-71
2021/10/11 05:43:27;;;;;;;17.70;3.08;;;;;;;9.83;100.00;102786.69;5012728;28;20042;-72
2021/10/11 05:45:53;;;;;;;10.68;3.40;;;;;;;9.81;100.00;102790.06;5012668;28;20026;-72
2021/10/11 05:48:18;;;;;;;17.13;4.20;;;;;;;9.75;100.00;102785.41;5012267;28;20444;-72
2021/10/11 05:50:44;;;;;;;12.55;3.28;;;;;;;9.76;100.00;102790.75;5011968;28;20017;-73
2021/10/11 05:53:09;;;;;;;14.57;2.90;;;;;;;9.72;100.00;102791.41;5017624;28;20030;-73
2021/10/11 05:55:35;;;;;;;10.57;2.20;;;;;;;9.75;100.00;102799.47;5019353;28;20171;-73
2021/10/11 05:58:00;;;;;;;11.63;2.35;;;;;;;9.71;100.00;102796.59;5012857;28;20393;-73
2021/10/11 06:00:26;;;;;;;9.93;2.40;;;;;;;9.67;100.00;102794.63;5013403;28;20021;-72
2021/10/11 06:02:52;;;;;;;7.88;1.90;;;;;;;9.65;100.00;102802.44;5014060;28;20034;-72
2021/10/11 06:05:17;;;;;;;8.73;2.22;;;;;;;9.60;100.00;102804.84;5014789;28;20025;-72
2021/10/11 06:07:43;;;;;;;11.90;2.20;;;;;;;9.62;100.00;102802.28;5012733;28;20101;-72
2021/10/11 06:10:09;;;;;;;16.85;2.30;;;;;;;9.55;100.00;102802.78;5019429;28;20061;-72
2021/10/11 06:12:34;;;;;;;13.63;2.60;;;;;;;9.53;100.00;102807.06;5014564;28;20021;-71
2021/10/11 06:14:59;;;;;;;8.52;2.90;;;;;;;9.56;100.00;102805.50;5009800;28;20030;-73
2021/10/11 06:17:25;;;;;;;13.98;4.85;;;;;;;9.60;100.00;102810.09;5012399;28;20088;-74
2021/10/11 06:19:52;;;;;;;15.63;4.60;;;;;;;9.63;100.00;102806.72;5009524;28;20041;-74
2021/10/11 06:22:17;;;;;;;16.00;3.85;;;;;;;9.70;100.00;102808.84;5013481;28;20021;-72
2021/10/11 06:24:43;;;;;;;18.20;4.20;;;;;;;9.75;100.00;102814.31;5014290;28;20474;-72
2021/10/11 06:27:08;;;;;;;12.30;2.90;;;;;;;9.76;100.00;102811.78;5014656;28;20033;-71
2021/10/11 06:29:33;;;;;;;10.68;3.33;;;;;;;9.80;100.00;102818.09;5014383;28;20108;-71
2021/10/11 06:31:59;;;;;;;12.43;3.50;;;;;;;9.90;100.00;102814.22;5011270;28;20088;-71
2021/10/11 06:34:24;;;;;;;14.25;4.00;;;;;;;9.98;100.00;102822.50;5011796;28;20058;-72
2021/10/11 06:36:49;;;;;;;13.57;3.45;;;;;;;9.99;100.00;102817.31;5011071;28;20034;-73
2021/10/11 06:39:15;;;;;;;7.57;3.30;;;;;;;10.04;100.00;102818.47;5011367;28;20018;-73
2021/10/11 06:41:40;;;;;;;7.85;2.95;;;;;;;10.08;100.00;102820.41;5013649;28;20430;-74
2021/10/11 06:44:06;;;;;;;8.60;3.47;;;;;;;10.15;100.00;102826.91;5012801;28;20026;-73
2021/10/11 06:46:31;;;;;;;7.32;2.63;;;;;;;10.19;100.00;102827.97;5013880;28;20062;-74
2021/10/11 06:48:56;;;;;;;10.52;2.92;;;;;;;10.21;100.00;102824.56;5014150;28;20049;-73
2021/10/11 06:51:22;;;;;;;19.23;4.70;;;;;;;10.24;100.00;102832.63;5013776;28;20029;-75
2021/10/11 06:53:47;;;;;;;16.42;4.60;;;;;;;10.29;100.00;102835.47;5014056;28;20045;-75
2021/10/11 06:56:12;;;;;;;13.45;4.10;;;;;;;10.33;100.00;102836.53;5012505;28;20057;-74
2021/10/11 06:58:38;;;;;;;12.38;3.78;;;;;;;10.38;100.00;102849.13;5013279;28;20034;-73
2021/10/11 07:01:03;;;;;;;12.48;3.58;;;;;;;10.44;100.00;102845.88;5013831;28;20524;-73
2021/10/11 07:03:30;;;;;;;13.35;3.08;;;;;;;10.49;100.00;102848.75;5014475;28;20076;-73
2021/10/11 07:05:59;;;;;;;14.82;4.20;;;;;;;10.55;100.00;102849.03;5019643;28;20450;-73
2021/10/11 07:08:25;;;;;;;14.15;2.97;;;;;;;10.59;100.00;102846.66;5012600;28;20041;-75
2021/10/11 07:10:54;;;;;;;14.15;3.05;;;;;;;10.65;100.00;102845.13;5011619;28;20030;-74
2021/10/11 07:13:20;;;;;;;10.15;2.88;;;;;;;10.67;100.00;102841.75;5009689;28;20038;-74
2021/10/11 07:15:45;;;;;;;12.57;2.97;;;;;;;10.74;100.00;102848.22;5011405;28;20017;-75
2021/10/11 07:18:10;;;;;;;13.48;2.60;;;;;;;10.79;100.00;102844.97;5011541;28;20029;-74
2021/10/11 07:20:40;;;;;;;12.95;2.55;;;;;;;10.83;100.00;102845.13;5012757;28;20048;-74
2021/10/11 07:23:06;;;;;;;16.70;2.70;;;;;;;10.88;100.00;102856.75;5012699;28;20116;-74
2021/10/11 07:25:31;;;;;;;9.40;3.00;;;;;;;10.91;100.00;102868.34;5011382;28;20076;-74
2021/10/11 07:27:58;;;;;;;9.98;2.17;;;;;;;10.97;100.00;102865.09;5013447;28;20029;-74
2021/10/11 07:30:23;;;;;;;8.02;2.15;;;;;;;11.03;100.00;102865.41;5012770;28;20549;-74
2021/10/11 07:32:49;;;;;;;12.27;2.08;;;;;;;11.10;100.00;102864.84;5010902;28;20061;-75
2021/10/11 07:35:14;;;;;;;17.08;2.90;;;;;;;11.16;100.00;102865.97;5012670;28;20029;-73
2021/10/11 07:37:39;;;;;;;9.70;2.60;;;;;;;11.24;100.00;102865.50;5015391;28;20031;-74
2021/10/11 07:40:05;;;;;;;12.63;3.88;;;;;;;11.31;100.00;102861.41;5012030;28;20434;-74
2021/10/11 07:42:31;;;;;;;12.23;2.92;;;;;;;11.39;100.00;102860.03;5011395;28;20544;-74
2021/10/11 07:44:56;;;;;;;7.47;1.48;;;;;;;11.48;100.00;102868.34;5011610;28;20028;-74
2021/10/11 07:47:21;;;;;;;9.90;2.28;;;;;;;11.60;100.00;102865.38;5016305;28;20037;-74
2021/10/11 07:49:47;;;;;;;11.57;1.40;;;;;;;11.72;100.00;102865.03;5012720;28;20022;-74
2021/10/11 07:52:12;;;;;;;7.95;1.55;;;;;;;11.85;100.00;102858.56;5011435;28;20127;-74
2021/10/11 07:54:37;;;;;;;10.55;2.33;;;;;;;12.03;97.26;102862.88;5012377;28;20389;-74
2021/10/11 07:57:04;;;;;;;14.02;1.80;;;;;;;12.14;97.00;102857.22;5013397;28;20021;-73
2021/10/11 07:59:29;;;;;;;5.53;1.17;;;;;;;12.31;95.36;102857.03;5018177;28;20405;-74
2021/10/11 08:01:56;;;;;;;6.05;1.35;;;;;;;12.45;93.76;102860.22;5012501;28;20038;-74
2021/10/11 08:04:21;;;;;;;9.88;1.08;;;;;;;12.60;92.86;102857.31;5015326;28;20030;-74
2021/10/11 08:06:46;;;;;;;10.00;1.52;;;;;;;12.74;92.28;102858.78;5012263;28;20040;-75
2021/10/11 08:09:12;;;;;;;7.38;1.40;;;;;;;12.89;91.05;102857.59;5018488;28;20068;-74
2021/10/11 08:11:39;;;;;;;8.63;1.45;;;;;;;13.03;89.21;102853.72;5015083;28;20037;-77
2021/10/11 08:14:05;;;;;;;9.95;1.73;;;;;;;13.14;89.13;102851.50;5016874;28;20032;-74
2021/10/11 08:16:30;;;;;;;19.17;2.45;;;;;;;13.22;89.32;102851.81;5017119;28;20029;-74
2021/10/11 08:18:56;;;;;;;11.75;1.83;;;;;;;13.28;88.31;102852.94;5015768;28;20026;-71
2021/10/11 08:21:21;;;;;;;10.80;1.38;;;;;;;13.35;87.60;102848.78;5017985;28;20496;-74
2021/10/11 08:23:51;;;;;;;8.85;1.90;;;;;;;13.45;87.54;102856.22;5015639;28;20486;-73
2021/10/11 08:26:16;;;;;;;4.65;1.50;;;;;;;13.57;87.46;102860.19;5013199;28;20120;-73
2021/10/11 08:28:42;;;;;;;11.60;1.73;;;;;;;13.67;87.77;102862.31;5015017;28;20116;-74
2021/10/11 08:31:07;;;;;;;8.85;1.52;;;;;;;13.74;85.83;102864.34;5010393;28;20022;-74
2021/10/11 08:33:33;;;;;;;9.07;1.70;;;;;;;13.76;84.98;102857.34;5016236;28;20029;-74
2021/10/11 08:36:01;;;;;;;12.05;1.92;;;;;;;13.80;84.75;102858.38;5010284;28;20023;-74
2021/10/11 08:38:26;;;;;;;10.68;1.58;;;;;;;13.81;86.04;102866.38;5011979;28;20076;-73
2021/10/11 08:40:52;;;;;;;8.52;2.13;;;;;;;13.86;86.59;102874.47;5013374;28;20560;-74
2021/10/11 08:43:18;;;;;;;13.15;2.25;;;;;;;13.98;86.75;102872.28;5018832;28;20148;-75
2021/10/11 08:45:46;;;;;;;11.88;1.95;;;;;;;14.12;85.13;102872.75;5019599;28;20038;-74
2021/10/11 08:48:12;;;;;;;13.00;1.55;;;;;;;14.26;83.12;102867.03;5027686;28;20026;-75
2021/10/11 08:50:37;;;;;;;11.95;1.48;;;;;;;14.33;82.11;102859.31;5019873;28;20494;-75
2021/10/11 08:53:03;;;;;;;12.18;1.65;;;;;;;14.42;81.92;102861.38;5022828;28;20034;-76
2021/10/11 08:55:29;;;;;;;12.25;1.50;;;;;;;14.46;80.76;102843.81;5014973;28;20034;-74
2021/10/11 08:58:02;;;;;;;14.90;2.17;;;;;;;14.62;81.10;102848.81;5022047;28;20034;-75
2021/10/11 09:00:31;;;;;;;;;;;;;;;14.82;80.33;102849.44;5014273;28;20034;-75
2021/10/11 09:02:58;;;;;;;7.93;1.60;;;;;;;15.13;80.38;102847.72;5014738;28;19913;-75
2021/10/11 09:05:32;;;;;;;7.13;1.35;;;;;;;15.29;77.02;102846.44;5019498;28;20330;-75
2021/10/11 09:08:09;;;;;;;10.02;1.67;;;;;;;15.29;76.37;102843.78;5016399;28;20018;-75
2021/10/11 09:10:55;;;;;;;13.43;1.70;;;;;;;15.25;77.26;102862.22;5015041;28;20037;-75
2021/10/11 09:13:25;;;;;;;10.68;1.65;;;;;;;15.17;76.13;102860.22;5018394;28;20061;-76
2021/10/11 09:16:10;;;;;;;8.65;1.70;;;;;;;15.15;76.67;102861.94;5017197;28;20041;-75
2021/10/11 09:18:38;;;;;;;9.27;1.38;;;;;;;15.11;78.29;102870.66;5021821;28;20033;-76
2021/10/11 09:21:04;;;;;;;10.60;1.73;;;;;;;15.04;78.65;102873.97;5023324;28;20109;-76
2021/10/11 09:23:30;;;;;;;12.60;1.40;;;;;;;14.95;78.34;102879.00;5018816;28;20137;-75
2021/10/11 09:25:56;;;;;;;9.25;1.75;;;;;;;14.84;79.31;102889.28;5019173;28;20033;-75
2021/10/11 09:28:25;;;;;;;11.93;2.00;;;;;;;14.72;79.66;102889.75;5018890;28;20026;-74
2021/10/11 09:30:50;;;;;;;8.77;2.20;;;;;;;14.67;80.10;102884.31;5015299;28;20451;-74
2021/10/11 09:33:21;;;;;;;14.38;1.83;;;;;;;14.59;80.23;102884.88;5016653;28;20057;-75
2021/10/11 09:35:47;;;;;;;6.90;1.30;;;;;;;14.48;78.84;102881.88;5013377;28;20030;-74
2021/10/11 09:38:16;;;;;;;6.68;1.48;;;;;;;14.44;79.07;102875.56;5021165;28;20084;-75
2021/10/11 09:40:42;;;;;;;9.70;1.70;;;;;;;14.43;79.17;102879.09;5025145;28;20030;-76
2021/10/11 09:43:12;;;;;;;13.57;1.33;;;;;;;14.43;78.18;102884.38;5016478;28;20495;-75
2021/10/11 09:45:38;;;;;;;6.47;1.05;;;;;;;14.48;80.25;102893.34;5019092;28;20037;-75
2021/10/11 09:48:08;;;;;;;6.60;1.58;;;;;;;14.65;80.60;102901.03;5016197;28;20478;-75
2021/10/11 09:50:34;;;;;;;10.18;1.35;;;;;;;14.93;78.50;102886.00;5008737;28;20102;-75
2021/10/11 09:52:59;;;;;;;7.50;1.20;;;;;;;15.14;75.45;102873.41;5021994;28;20087;-75
2021/10/11 09:55:25;;;;;;;5.68;1.33;;;;;;;15.40;75.63;102878.59;5015637;28;20038;-75
2021/10/11 09:57:50;;;;;;;8.25;1.60;;;;;;;15.85;74.37;102877.22;5015750;28;20030;-75
2021/10/11 10:00:16;;;;;;;9.98;1.55;;;;;;;16.23;70.59;102865.81;5013980;28;20025;-75
2021/10/11 10:02:43;;;;;;;8.75;1.35;;;;;;;16.54;69.80;102861.28;5014858;28;20038;-75
2021/10/11 10:05:12;;;;;;;10.52;1.65;;;;;;;16.63;69.28;102858.81;5014423;28;20497;-75
2021/10/11 10:07:43;;;;;;;5.97;1.10;;;;;;;16.25;71.50;102866.75;5016226;28;20429;-75
2021/10/11 10:10:09;;;;;;;7.30;1.30;;;;;;;15.73;74.78;102879.50;5014725;28;20021;-74
2021/10/11 10:12:45;;;;;;;8.40;1.90;;;;;;;15.29;78.46;102885.34;5015929;28;20076;-75
2021/10/11 10:15:13;;;;;;;9.93;1.42;;;;;;;14.89;80.52;102884.09;5014653;28;20036;-75
2021/10/11 10:17:38;;;;;;;11.02;1.60;;;;;;;14.69;81.74;102881.72;5016566;28;20037;-75
2021/10/11 10:20:12;;;;;;;10.60;1.92;;;;;;;14.46;82.38;102881.84;5016265;28;20034;-75
2021/10/11 10:22:37;;;;;;;;;;;;;;;14.44;82.56;102887.94;5010186;28;20054;-74
2021/10/11 10:25:07;;;;;;;9.57;1.50;;;;;;;14.39;82.62;102887.78;5017980;28;19936;-74
2021/10/11 10:27:40;;;;;;;9.80;1.75;;;;;;;14.48;82.13;102887.19;5015782;28;20289;-74
2021/10/11 10:30:17;;;;;;;9.73;1.20;;;;;;;14.62;81.07;102879.66;5016943;28;20034;-75
2021/10/11 10:32:54;;;;;;;10.52;1.60;;;;;;;14.84;81.00;102884.84;5017027;28;20112;-75
2021/10/11 10:35:19;;;;;;;14.30;1.73;;;;;;;15.13;78.93;102879.56;5016602;28;20425;-75
2021/10/11 10:37:45;;;;;;;9.63;1.25;;;;;;;15.44;77.26;102875.16;5011576;28;20026;-75
2021/10/11 10:40:16;;;;;;;12.32;1.88;;;;;;;15.82;74.82;102872.72;5013975;28;20030;-74
2021/10/11 10:42:42;;;;;;;10.85;1.52;;;;;;;16.25;73.08;102865.00;5014742;28;20030;-75
2021/10/11 10:45:21;;;;;;;8.95;1.27;;;;;;;16.81;73.15;102869.00;5014658;28;20061;-74
2021/10/11 10:47:51;;;;;;;7.03;0.93;;;;;;;17.26;68.71;102856.72;5013362;28;20466;-75
2021/10/11 10:50:20;;;;;;;9.70;2.03;;;;;;;17.23;66.53;102840.69;5008556;28;20038;-75
2021/10/11 10:52:54;;;;;;;7.55;1.27;;;;;;;17.11;66.63;102842.22;5008282;28;20375;-75
2021/10/11 10:55:20;;;;;;;4.65;1.45;;;;;;;17.09;66.84;102851.94;5013251;28;20492;-75
2021/10/11 10:57:45;;;;;;;9.88;1.83;;;;;;;17.10;65.89;102847.50;5016837;28;20049;-74
2021/10/11 11:00:19;;;;;;;6.18;1.15;;;;;;;17.09;67.80;102854.59;5013814;28;20528;-74
2021/10/11 11:02:45;;;;;;;;;;;;;;;17.05;65.39;102851.81;5014153;28;20036;-73
2021/10/11 11:05:11;;;;;;;12.65;1.42;;;;;;;17.02;66.29;102844.69;5013338;28;19944;-75
2021/10/11 11:07:39;;;;;;;8.23;1.77;;;;;;;17.07;66.26;102851.00;5012210;28;20091;-75
2021/10/11 11:10:13;;;;;;;7.40;1.13;;;;;;;17.40;65.48;102852.56;5012826;28;20109;-75
2021/10/11 11:12:39;;;;;;;;;;;;;;;17.91;62.95;102839.34;5010067;28;20425;-75
2021/10/11 11:15:08;;;;;;;7.47;1.40;;;;;;;18.43;59.70;102831.38;5017810;28;19999;-74